Time,TemperatureF,DewpointF,PressureIn,WindDirection,WindDirectionDegrees,WindSpeedMPH,WindSpeedGustMPH,Humidity,HourlyPrecipIn,Conditions,Clouds,dailyrainin,SoftwareType,DateUTC
2013-04-18 00:01:00,48.0,45.2,29.95,North,11,9.0,11.0,90,0.00,,,0.00,Wunderground v.1.15,2013-04-18 04:01:00,
2013-04-18 00:02:00,48.0,45.2,29.95,NE,46,9.0,14.0,90,0.00,,,0.00,Wunderground v.1.15,2013-04-18 04:02:00,
2013-04-18 00:03:00,48.0,45.2,29.94,North,6,9.0,14.0,90,0.00,,,0.00,Wunderground v.1.15,2013-04-18 04:03:00,
2013-04-18 00:04:00,48.0,45.2,29.94,East,98,9.0,14.0,90,0.00,,,0.00,Wunderground v.1.15,2013-04-18 04:04:00,
2013-04-18 00:06:00,48.1,45.3,29.94,East,92,10.0,14.0,90,0.00,,,0.00,Wunderground v.1.15,2013-04-18 04:06:00,
2013-04-18 00:12:00,48.1,45.3,29.93,East,89,8.0,9.0,90,0.00,,,0.00,Wunderground v.1.15,2013-04-18 04:12:00,
2013-04-18 00:18:00,48.2,45.4,29.93,SE,131,8.0,12.0,90,0.00,,,0.00,Wunderground v.1.15,2013-04-18 04:18:00,
2013-04-18 00:23:00,48.3,45.5,29.93,SE,134,9.0,12.0,90,0.00,,,0.00,Wunderground v.1.15,2013-04-18 04:23:00,
2013-04-18 00:28:00,48.4,45.6,29.92,ESE,107,9.0,12.0,90,0.00,,,0.00,Wunderground v.1.15,2013-04-18 04:28:00,
2013-04-18 00:34:00,48.5,45.7,29.92,NNW,342,9.0,26.0,90,0.00,,,0.00,Wunderground v.1.15,2013-04-18 04:34:00,
2013-04-18 00:40:00,48.6,45.8,29.92,ESE,114,9.0,9.0,90,0.00,,,0.00,Wunderground v.1.15,2013-04-18 04:40:00,
2013-04-18 00:46:00,48.7,45.9,29.92,SE,143,8.0,26.0,90,0.00,,,0.00,Wunderground v.1.15,2013-04-18 04:46:00,
2013-04-18 00:52:00,48.8,46.0,29.91,East,81,9.0,26.0,90,0.00,,,0.00,Wunderground v.1.15,2013-04-18 04:52:00,
2013-04-18 00:57:00,48.9,46.1,29.91,East,84,9.0,26.0,90,0.00,,,0.00,Wunderground v.1.15,2013-04-18 04:57:00,
2013-04-18 01:03:00,48.9,46.1,29.91,East,91,8.0,14.0,90,0.00,,,0.00,Wunderground v.1.15,2013-04-18 05:03:00,
2013-04-18 01:09:00,49.1,46.6,29.90,ESE,114,7.0,14.0,91,0.00,,,0.00,Wunderground v.1.15,2013-04-18 05:09:00,
2013-04-18 01:14:00,49.2,46.7,29.90,East,79,8.0,14.0,91,0.00,,,0.00,Wunderground v.1.15,2013-04-18 05:14:00,
2013-04-18 01:20:00,49.2,46.7,29.89,WNW,287,7.0,7.0,91,0.00,,,0.00,Wunderground v.1.15,2013-04-18 05:20:00,
2013-04-18 01:26:00,49.2,46.7,29.89,ESE,103,6.0,12.0,91,0.00,,,0.00,Wunderground v.1.15,2013-04-18 05:26:00,
2013-04-18 01:32:00,49.2,46.7,29.89,East,94,6.0,18.0,91,0.00,,,0.00,Wunderground v.1.15,2013-04-18 05:32:00,
2013-04-18 01:37:00,49.2,46.7,29.88,ESE,115,6.0,18.0,91,0.00,,,0.00,Wunderground v.1.15,2013-04-18 05:37:00,
2013-04-18 01:43:00,49.2,46.7,29.88,SE,129,6.0,18.0,91,0.00,,,0.00,Wunderground v.1.15,2013-04-18 05:43:00,
2013-04-18 01:49:00,49.2,46.7,29.88,ESE,123,5.0,18.0,91,0.00,,,0.00,Wunderground v.1.15,2013-04-18 05:49:00,
2013-04-18 01:55:00,49.3,47.1,29.87,North,355,5.0,18.0,92,0.00,,,0.00,Wunderground v.1.15,2013-04-18 05:55:00,
2013-04-18 02:00:00,49.4,47.2,29.87,WNW,283,6.0,6.0,92,0.00,,,0.00,Wunderground v.1.15,2013-04-18 06:00:00,
2013-04-18 02:06:00,49.6,47.4,29.86,East,84,6.0,9.0,92,0.00,,,0.00,Wunderground v.1.15,2013-04-18 06:06:00,
2013-04-18 02:12:00,49.8,47.6,29.86,SE,124,6.0,9.0,92,0.00,,,0.00,Wunderground v.1.15,2013-04-18 06:12:00,
2013-04-18 02:18:00,50.0,47.8,29.86,ESE,108,6.0,13.0,92,0.00,,,0.00,Wunderground v.1.15,2013-04-18 06:18:00,
2013-04-18 02:24:00,50.0,47.8,29.85,SSE,162,7.0,11.0,92,0.00,,,0.00,Wunderground v.1.15,2013-04-18 06:24:00,
2013-04-18 02:30:00,50.1,47.9,29.85,SE,139,7.0,7.0,92,0.00,,,0.00,Wunderground v.1.15,2013-04-18 06:30:00,
2013-04-18 02:37:00,50.2,48.3,29.84,ESE,117,5.0,17.0,93,0.00,,,0.00,Wunderground v.1.15,2013-04-18 06:37:00,
2013-04-18 02:43:00,50.3,48.4,29.83,ESE,117,4.0,17.0,93,0.00,,,0.00,Wunderground v.1.15,2013-04-18 06:43:00,
2013-04-18 02:49:00,50.5,48.6,29.83,SE,127,5.0,17.0,93,0.00,,,0.00,Wunderground v.1.15,2013-04-18 06:49:00,
2013-04-18 02:55:00,50.7,49.0,29.82,WSW,248,4.0,17.0,94,0.00,,,0.00,Wunderground v.1.15,2013-04-18 06:55:00,
2013-04-18 03:00:00,50.9,49.2,29.82,ESE,122,3.0,3.0,94,0.00,,,0.00,Wunderground v.1.15,2013-04-18 07:00:00,
2013-04-18 03:06:00,51.2,49.5,29.81,ESE,120,3.0,6.0,94,0.00,,,0.00,Wunderground v.1.15,2013-04-18 07:06:00,
2013-04-18 03:12:00,51.5,49.8,29.81,ESE,110,3.0,7.0,94,0.00,,,0.00,Wunderground v.1.15,2013-04-18 07:12:00,
2013-04-18 03:18:00,51.9,50.5,29.80,SSE,150,3.0,7.0,95,0.00,,,0.00,Wunderground v.1.15,2013-04-18 07:18:00,
2013-04-18 03:24:00,52.6,51.5,29.80,SSE,165,4.0,6.0,96,0.00,,,0.00,Wunderground v.1.15,2013-04-18 07:24:00,
2013-04-18 03:30:00,53.2,51.8,29.81,SE,135,4.0,4.0,95,0.00,,,0.00,Wunderground v.1.15,2013-04-18 07:30:00,
2013-04-18 03:35:00,53.5,52.1,29.80,SE,136,3.0,15.0,95,0.00,,,0.00,Wunderground v.1.15,2013-04-18 07:35:00,
2013-04-18 03:41:00,53.8,52.4,29.80,ESE,122,4.0,6.0,95,0.00,,,0.00,Wunderground v.1.15,2013-04-18 07:41:00,
2013-04-18 03:47:00,54.3,52.9,29.80,SE,135,5.0,15.0,95,0.00,,,0.00,Wunderground v.1.15,2013-04-18 07:47:00,
2013-04-18 03:53:00,54.8,53.4,29.79,SE,145,6.0,15.0,95,0.00,,,0.00,Wunderground v.1.15,2013-04-18 07:53:00,
2013-04-18 03:59:00,55.2,53.8,29.78,SE,127,7.0,15.0,95,0.00,,,0.00,Wunderground v.1.15,2013-04-18 07:59:00,
2013-04-18 04:04:00,55.5,54.1,29.78,ESE,105,7.0,10.0,95,0.00,,,0.00,Wunderground v.1.15,2013-04-18 08:04:00,
2013-04-18 04:10:00,55.7,54.3,29.78,SE,135,6.0,6.0,95,0.00,,,0.00,Wunderground v.1.15,2013-04-18 08:10:00,
2013-04-18 04:15:00,56.2,54.8,29.78,ESE,105,5.0,7.0,95,0.00,,,0.00,Wunderground v.1.15,2013-04-18 08:15:00,
2013-04-18 04:21:00,56.9,55.5,29.78,SE,133,5.0,8.0,95,0.00,,,0.00,Wunderground v.1.15,2013-04-18 08:21:00,
2013-04-18 04:27:00,57.6,56.2,29.78,South,178,5.0,8.0,95,0.00,,,0.00,Wunderground v.1.15,2013-04-18 08:27:00,
2013-04-18 04:33:00,58.3,56.9,29.78,SSE,149,5.0,10.0,95,0.00,,,0.00,Wunderground v.1.15,2013-04-18 08:33:00,
2013-04-18 04:38:00,58.8,57.1,29.77,South,173,5.0,10.0,94,0.00,,,0.00,Wunderground v.1.15,2013-04-18 08:38:00,
2013-04-18 04:44:00,59.3,57.6,29.77,SSE,158,5.0,10.0,94,0.00,,,0.00,Wunderground v.1.15,2013-04-18 08:44:00,
2013-04-18 04:50:00,59.8,57.8,29.77,SE,139,6.0,6.0,93,0.00,,,0.00,Wunderground v.1.15,2013-04-18 08:50:00,
2013-04-18 04:55:00,60.3,58.3,29.77,SSE,158,7.0,10.0,93,0.00,,,0.00,Wunderground v.1.15,2013-04-18 08:55:00,
2013-04-18 05:00:00,60.7,58.4,29.77,South,183,7.0,7.0,92,0.00,,,0.00,Wunderground v.1.15,2013-04-18 09:00:00,
2013-04-18 05:06:00,61.0,58.7,29.76,South,176,7.0,11.0,92,0.00,,,0.00,Wunderground v.1.15,2013-04-18 09:06:00,
2013-04-18 05:12:00,61.3,58.7,29.76,South,170,8.0,9.0,91,0.00,,,0.00,Wunderground v.1.15,2013-04-18 09:12:00,
2013-04-18 05:18:00,61.5,58.8,29.76,SSE,160,7.0,9.0,91,0.00,,,0.00,Wunderground v.1.15,2013-04-18 09:18:00,
2013-04-18 05:24:00,61.7,59.0,29.76,South,187,6.0,7.0,91,0.00,,,0.00,Wunderground v.1.15,2013-04-18 09:24:00,
2013-04-18 05:29:00,61.8,58.8,29.76,South,191,6.0,8.0,90,0.00,,,0.00,Wunderground v.1.15,2013-04-18 09:29:00,
2013-04-18 05:35:00,62.0,59.3,29.76,SSW,193,7.0,11.0,91,0.00,,,0.00,Wunderground v.1.15,2013-04-18 09:35:00,
2013-04-18 05:41:00,62.4,59.4,29.76,SSE,164,7.0,10.0,90,0.00,,,0.00,Wunderground v.1.15,2013-04-18 09:41:00,
2013-04-18 05:47:00,62.7,59.7,29.76,SE,132,8.0,11.0,90,0.00,,,0.00,Wunderground v.1.15,2013-04-18 09:47:00,
2013-04-18 05:53:00,63.1,59.8,29.76,SSW,200,8.0,11.0,89,0.00,,,0.00,Wunderground v.1.15,2013-04-18 09:53:00,
2013-04-18 05:59:00,63.5,60.2,29.76,SSE,159,8.0,11.0,89,0.00,,,0.00,Wunderground v.1.15,2013-04-18 09:59:00,
2013-04-18 06:04:00,63.8,60.2,29.75,SW,222,8.0,13.0,88,0.00,,,0.00,Wunderground v.1.15,2013-04-18 10:04:00,
2013-04-18 06:10:00,64.0,60.4,29.75,SE,143,9.0,9.0,88,0.00,,,0.00,Wunderground v.1.15,2013-04-18 10:10:00,
2013-04-18 06:15:00,63.7,60.1,29.75,South,170,8.0,10.0,88,0.00,,,0.00,Wunderground v.1.15,2013-04-18 10:15:00,
2013-04-18 06:21:00,63.4,60.1,29.74,South,169,8.0,9.0,89,0.00,,,0.00,Wunderground v.1.15,2013-04-18 10:21:00,
2013-04-18 06:27:00,63.2,59.9,29.74,SSE,165,8.0,9.0,89,0.00,,,0.00,Wunderground v.1.15,2013-04-18 10:27:00,
2013-04-18 06:33:00,63.1,59.8,29.74,SE,141,8.0,16.0,89,0.00,,,0.00,Wunderground v.1.15,2013-04-18 10:33:00,
2013-04-18 06:39:00,63.0,59.7,29.74,SSE,165,9.0,16.0,89,0.00,,,0.00,Wunderground v.1.15,2013-04-18 10:39:00,
2013-04-18 06:44:00,63.0,59.7,29.74,SSE,163,9.0,16.0,89,0.00,,,0.00,Wunderground v.1.15,2013-04-18 10:44:00,
2013-04-18 06:50:00,63.2,59.9,29.73,South,183,9.0,9.0,89,0.00,,,0.00,Wunderground v.1.15,2013-04-18 10:50:00,
2013-04-18 06:56:00,63.4,60.1,29.73,SE,139,9.0,16.0,89,0.00,,,0.00,Wunderground v.1.15,2013-04-18 10:56:00,
2013-04-18 07:02:00,63.4,60.1,29.73,SSW,204,8.0,12.0,89,0.00,,,0.00,Wunderground v.1.15,2013-04-18 11:02:00,
2013-04-18 07:08:00,63.3,60.0,29.73,South,190,9.0,12.0,89,0.00,,,0.00,Wunderground v.1.15,2013-04-18 11:08:00,
2013-04-18 07:14:00,63.3,60.0,29.74,SSE,159,9.0,14.0,89,0.00,,,0.00,Wunderground v.1.15,2013-04-18 11:14:00,
2013-04-18 07:20:00,63.2,59.9,29.74,SSE,152,9.0,13.0,89,0.00,,,0.00,Wunderground v.1.15,2013-04-18 11:20:00,
2013-04-18 07:27:00,63.2,59.9,29.74,South,184,10.0,13.0,89,0.00,,,0.00,Wunderground v.1.15,2013-04-18 11:27:00,
2013-04-18 07:33:00,63.3,60.0,29.74,SSW,206,10.0,18.0,89,0.00,,,0.00,Wunderground v.1.15,2013-04-18 11:33:00,
2013-04-18 07:38:00,63.4,60.1,29.74,SSW,195,10.0,18.0,89,0.00,,,0.00,Wunderground v.1.15,2013-04-18 11:38:00,
2013-04-18 07:44:00,63.6,60.3,29.74,SSW,204,11.0,18.0,89,0.00,,,0.00,Wunderground v.1.15,2013-04-18 11:44:00,
2013-04-18 07:49:00,63.8,60.5,29.74,SSW,195,11.0,18.0,89,0.00,,,0.00,Wunderground v.1.15,2013-04-18 11:49:00,
2013-04-18 07:55:00,64.0,60.7,29.74,SSW,200,11.0,18.0,89,0.00,,,0.00,Wunderground v.1.15,2013-04-18 11:55:00,
2013-04-18 08:00:00,64.2,60.9,29.74,South,181,11.0,11.0,89,0.00,,,0.00,Wunderground v.1.15,2013-04-18 12:00:00,
2013-04-18 08:06:00,64.4,61.1,29.74,SE,141,10.0,12.0,89,0.00,,,0.00,Wunderground v.1.15,2013-04-18 12:06:00,
2013-04-18 08:12:00,64.7,61.4,29.74,SE,124,10.0,14.0,89,0.00,,,0.00,Wunderground v.1.15,2013-04-18 12:12:00,
2013-04-18 08:18:00,65.1,61.5,29.74,South,179,11.0,16.0,88,0.00,,,0.00,Wunderground v.1.15,2013-04-18 12:18:00,
2013-04-18 08:24:00,65.4,61.8,29.73,SSW,203,12.0,16.0,88,0.00,,,0.00,Wunderground v.1.15,2013-04-18 12:24:00,
2013-04-18 08:29:00,65.6,61.9,29.73,South,190,12.0,16.0,88,0.00,,,0.00,Wunderground v.1.15,2013-04-18 12:29:00,
2013-04-18 08:34:00,65.6,61.9,29.74,SSW,201,12.0,22.0,88,0.00,,,0.00,Wunderground v.1.15,2013-04-18 12:34:00,
2013-04-18 08:40:00,65.8,62.1,29.73,SSE,158,13.0,22.0,88,0.00,,,0.00,Wunderground v.1.15,2013-04-18 12:40:00,
2013-04-18 08:45:00,65.8,62.1,29.73,SSE,148,12.0,22.0,88,0.00,,,0.00,Wunderground v.1.15,2013-04-18 12:45:00,
2013-04-18 08:51:00,66.0,62.3,29.73,SE,132,13.0,18.0,88,0.00,,,0.00,Wunderground v.1.15,2013-04-18 12:51:00,
2013-04-18 08:56:00,66.3,62.6,29.72,SSW,195,14.0,22.0,88,0.00,,,0.00,Wunderground v.1.15,2013-04-18 12:56:00,
2013-04-18 09:02:00,66.6,62.9,29.72,South,172,13.0,19.0,88,0.00,,,0.00,Wunderground v.1.15,2013-04-18 13:02:00,
2013-04-18 09:08:00,67.4,63.4,29.72,SSE,158,14.0,19.0,87,0.00,,,0.00,Wunderground v.1.15,2013-04-18 13:08:00,
2013-04-18 09:13:00,67.9,63.6,29.71,ESE,122,14.0,21.0,86,0.00,,,0.00,Wunderground v.1.15,2013-04-18 13:13:00,
2013-04-18 09:19:00,68.3,63.9,29.71,South,170,14.0,22.0,86,0.00,,,0.00,Wunderground v.1.15,2013-04-18 13:19:00,
2013-04-18 09:25:00,68.5,64.1,29.70,SE,135,15.0,18.0,86,0.00,,,0.00,Wunderground v.1.15,2013-04-18 13:25:00,
2013-04-18 09:31:00,68.8,64.4,29.70,South,173,14.0,23.0,86,0.00,,,0.00,Wunderground v.1.15,2013-04-18 13:31:00,
2013-04-18 09:37:00,68.7,64.0,29.68,SE,127,15.0,23.0,85,0.00,,,0.00,Wunderground v.1.15,2013-04-18 13:37:00,
2013-04-18 09:42:00,68.8,64.1,29.67,SSE,163,17.0,23.0,85,0.00,,,0.00,Wunderground v.1.15,2013-04-18 13:42:00,
2013-04-18 09:48:00,69.0,64.3,29.66,SSW,204,17.0,23.0,85,0.00,,,0.00,Wunderground v.1.15,2013-04-18 13:48:00,
2013-04-18 09:54:00,69.2,64.8,29.67,SSE,160,18.0,23.0,86,0.00,,,0.00,Wunderground v.1.15,2013-04-18 13:54:00,
2013-04-18 10:00:00,69.4,64.7,29.67,SSE,162,19.0,21.0,85,0.00,,,0.00,Wunderground v.1.15,2013-04-18 14:00:00,
2013-04-18 10:06:00,69.4,64.7,29.68,SSW,195,19.0,22.0,85,0.00,,,0.00,Wunderground v.1.15,2013-04-18 14:06:00,
2013-04-18 10:12:00,69.7,65.0,29.68,SSW,205,19.0,23.0,85,0.00,,,0.00,Wunderground v.1.15,2013-04-18 14:12:00,
2013-04-18 10:17:00,70.3,65.2,29.68,SSE,164,19.0,25.0,84,0.00,,,0.00,Wunderground v.1.15,2013-04-18 14:17:00,
2013-04-18 10:23:00,70.7,65.3,29.68,South,177,19.0,25.0,83,0.00,,,0.00,Wunderground v.1.15,2013-04-18 14:23:00,
2013-04-18 10:29:00,70.8,65.4,29.68,SSE,162,21.0,25.0,83,0.00,,,0.00,Wunderground v.1.15,2013-04-18 14:29:00,
2013-04-18 10:35:00,70.7,65.3,29.68,SSE,165,20.0,29.0,83,0.00,,,0.00,Wunderground v.1.15,2013-04-18 14:35:00,
2013-04-18 10:42:00,70.8,65.4,29.68,SE,138,21.0,27.0,83,0.00,,,0.00,Wunderground v.1.15,2013-04-18 14:42:00,
2013-04-18 10:48:00,71.3,65.9,29.68,SSW,205,20.0,29.0,83,0.00,,,0.00,Wunderground v.1.15,2013-04-18 14:48:00,
2013-04-18 10:54:00,71.7,65.9,29.68,SSW,200,20.0,27.0,82,0.00,,,0.00,Wunderground v.1.15,2013-04-18 14:54:00,
2013-04-18 11:00:00,71.2,65.4,29.68,SSW,212,20.0,20.0,82,0.00,,,0.00,Wunderground v.1.15,2013-04-18 15:00:00,
2013-04-18 11:06:00,70.8,65.4,29.69,SSW,194,20.0,24.0,83,0.00,,,0.00,Wunderground v.1.15,2013-04-18 15:06:00,
2013-04-18 11:12:00,70.6,65.2,29.69,South,191,19.0,23.0,83,0.00,,,0.00,Wunderground v.1.15,2013-04-18 15:12:00,
2013-04-18 11:18:00,70.6,65.2,29.68,SSW,193,19.0,23.0,83,0.00,,,0.00,Wunderground v.1.15,2013-04-18 15:18:00,
2013-04-18 11:24:00,70.6,65.2,29.68,SSW,208,20.0,23.0,83,0.00,,,0.00,Wunderground v.1.15,2013-04-18 15:24:00,
2013-04-18 11:30:00,70.6,65.5,29.69,South,191,18.0,18.0,84,0.00,,,0.00,Wunderground v.1.15,2013-04-18 15:30:00,
2013-04-18 11:36:00,70.6,65.5,29.69,South,181,18.0,31.0,84,0.00,,,0.00,Wunderground v.1.15,2013-04-18 15:36:00,
2013-04-18 11:41:00,70.7,65.6,29.69,SE,145,18.0,26.0,84,0.00,,,0.00,Wunderground v.1.15,2013-04-18 15:41:00,
2013-04-18 11:47:00,70.8,65.4,29.69,SSE,150,18.0,31.0,83,0.00,,,0.00,Wunderground v.1.15,2013-04-18 15:47:00,
2013-04-18 11:53:00,71.0,65.9,29.68,SSE,159,17.0,31.0,84,0.00,,,0.00,Wunderground v.1.15,2013-04-18 15:53:00,
2013-04-18 11:58:00,71.1,65.7,29.68,SSE,163,15.0,31.0,83,0.00,,,0.00,Wunderground v.1.15,2013-04-18 15:58:00,
2013-04-18 12:04:00,71.1,65.7,29.68,South,187,16.0,17.0,83,0.00,,,0.00,Wunderground v.1.15,2013-04-18 16:04:00,
2013-04-18 12:10:00,71.1,65.7,29.68,South,186,17.0,25.0,83,0.00,,,0.00,Wunderground v.1.15,2013-04-18 16:10:00,
2013-04-18 12:16:00,71.4,66.0,29.68,SSE,163,17.0,25.0,83,0.00,,,0.00,Wunderground v.1.15,2013-04-18 16:16:00,
2013-04-18 12:22:00,71.4,66.0,29.68,South,183,16.0,20.0,83,0.00,,,0.00,Wunderground v.1.15,2013-04-18 16:22:00,
2013-04-18 12:28:00,71.2,65.8,29.68,SSW,208,15.0,21.0,83,0.00,,,0.00,Wunderground v.1.15,2013-04-18 16:28:00,
2013-04-18 12:34:00,70.9,65.5,29.68,SSE,163,15.0,33.0,83,0.00,,,0.00,Wunderground v.1.15,2013-04-18 16:34:00,
2013-04-18 12:40:00,70.7,65.6,29.68,SE,138,14.0,14.0,84,0.00,,,0.00,Wunderground v.1.15,2013-04-18 16:40:00,
2013-04-18 12:45:00,70.7,65.6,29.71,SW,223,14.0,33.0,84,0.00,,,0.00,Wunderground v.1.15,2013-04-18 16:45:00,
2013-04-18 12:51:00,69.1,61.2,29.71,WSW,250,16.0,33.0,76,0.00,,,0.00,Wunderground v.1.15,2013-04-18 16:51:00,
2013-04-18 12:57:00,66.7,60.3,29.71,SSW,212,16.0,33.0,80,0.00,,,0.00,Wunderground v.1.15,2013-04-18 16:57:00,
2013-04-18 13:03:00,65.1,60.1,29.70,SW,231,11.0,13.0,84,0.00,,,0.01,Wunderground v.1.15,2013-04-18 17:03:00,
2013-04-18 13:09:00,63.8,60.2,29.71,SSW,204,11.0,19.0,88,0.51,,,0.06,Wunderground v.1.15,2013-04-18 17:09:00,
2013-04-18 13:15:00,62.7,59.4,29.71,West,278,11.0,12.0,89,0.11,,,0.07,Wunderground v.1.15,2013-04-18 17:15:00,
2013-04-18 13:22:00,62.2,59.5,29.71,SW,233,9.0,10.0,91,0.36,,,0.09,Wunderground v.1.15,2013-04-18 17:22:00,
2013-04-18 13:28:00,62.0,59.3,29.72,SW,215,9.0,15.0,91,0.08,,,0.10,Wunderground v.1.15,2013-04-18 17:28:00,
2013-04-18 13:34:00,62.0,59.6,29.71,SE,146,9.0,29.0,92,0.19,,,0.11,Wunderground v.1.15,2013-04-18 17:34:00,
2013-04-18 13:40:00,62.0,59.6,29.71,SW,217,8.0,8.0,92,0.07,,,0.11,Wunderground v.1.15,2013-04-18 17:40:00,
2013-04-18 13:46:00,62.0,59.6,29.70,WSW,238,7.0,29.0,92,0.04,,,0.11,Wunderground v.1.15,2013-04-18 17:46:00,
2013-04-18 13:52:00,62.0,59.6,29.70,SSW,210,6.0,29.0,92,0.00,,,0.11,Wunderground v.1.15,2013-04-18 17:52:00,
2013-04-18 13:58:00,61.9,59.5,29.70,WSW,248,6.0,29.0,92,0.00,,,0.11,Wunderground v.1.15,2013-04-18 17:58:00,
2013-04-18 14:03:00,61.8,59.5,29.71,SW,222,6.0,13.0,92,0.00,,,0.11,Wunderground v.1.15,2013-04-18 18:03:00,
2013-04-18 14:08:00,61.8,59.5,29.70,SW,236,8.0,13.0,92,0.00,,,0.11,Wunderground v.1.15,2013-04-18 18:08:00,
2013-04-18 14:14:00,61.7,59.0,29.71,SE,125,8.0,13.0,91,0.00,,,0.12,Wunderground v.1.15,2013-04-18 18:14:00,
2013-04-18 14:20:00,61.4,59.1,29.72,SW,224,9.0,12.0,92,0.87,,,0.17,Wunderground v.1.15,2013-04-18 18:20:00,
2013-04-18 14:25:00,61.0,59.0,29.72,SW,234,9.0,12.0,93,0.94,,,0.22,Wunderground v.1.15,2013-04-18 18:25:00,
2013-04-18 14:30:00,60.7,58.7,29.73,SW,225,8.0,9.0,93,0.39,,,0.26,Wunderground v.1.15,2013-04-18 18:30:00,
2013-04-18 14:36:00,60.4,58.7,29.72,SSW,202,7.0,21.0,94,0.76,,,0.35,Wunderground v.1.15,2013-04-18 18:36:00,
2013-04-18 14:41:00,60.3,58.6,29.72,SSW,201,7.0,21.0,94,0.43,,,0.38,Wunderground v.1.15,2013-04-18 18:41:00,
2013-04-18 14:47:00,60.1,58.7,29.72,SW,224,7.0,21.0,95,0.42,,,0.44,Wunderground v.1.15,2013-04-18 18:47:00,
2013-04-18 14:53:00,60.0,58.6,29.72,SW,218,7.0,21.0,95,0.47,,,0.48,Wunderground v.1.15,2013-04-18 18:53:00,
2013-04-18 14:59:00,59.9,58.5,29.74,SSW,203,8.0,21.0,95,0.64,,,0.52,Wunderground v.1.15,2013-04-18 18:59:00,
2013-04-18 15:05:00,59.8,58.4,29.73,SSW,213,9.0,11.0,95,0.61,,,0.60,Wunderground v.1.15,2013-04-18 19:05:00,
2013-04-18 15:12:00,59.7,58.6,29.72,SSW,204,7.0,7.0,96,0.27,,,0.63,Wunderground v.1.15,2013-04-18 19:12:00,
2013-04-18 15:18:00,59.6,58.5,29.73,SSW,204,6.0,8.0,96,0.11,,,0.64,Wunderground v.1.15,2013-04-18 19:18:00,
2013-04-18 15:24:00,59.5,58.4,29.72,SW,226,5.0,6.0,96,0.09,,,0.65,Wunderground v.1.15,2013-04-18 19:24:00,
2013-04-18 15:30:00,59.5,58.4,29.73,SSE,159,6.0,7.0,96,0.68,,,0.69,Wunderground v.1.15,2013-04-18 19:30:00,
2013-04-18 15:35:00,59.5,58.4,29.73,WSW,239,6.0,15.0,96,0.26,,,0.70,Wunderground v.1.15,2013-04-18 19:35:00,
2013-04-18 15:41:00,59.5,58.4,29.72,SW,229,5.0,15.0,96,0.10,,,0.71,Wunderground v.1.15,2013-04-18 19:41:00,
2013-04-18 15:47:00,59.6,58.2,29.72,SSW,197,6.0,15.0,95,0.05,,,0.71,Wunderground v.1.15,2013-04-18 19:47:00,
2013-04-18 15:53:00,59.6,58.2,29.71,South,190,4.0,15.0,95,0.00,,,0.71,Wunderground v.1.15,2013-04-18 19:53:00,
2013-04-18 15:59:00,59.7,58.3,29.70,SE,145,4.0,15.0,95,0.00,,,0.71,Wunderground v.1.15,2013-04-18 19:59:00,
2013-04-18 16:05:00,59.8,58.4,29.69,SW,227,2.0,4.0,95,0.00,,,0.71,Wunderground v.1.15,2013-04-18 20:05:00,
2013-04-18 16:11:00,59.9,58.5,29.70,WSW,249,2.0,4.0,95,0.00,,,0.71,Wunderground v.1.15,2013-04-18 20:11:00,
2013-04-18 16:17:00,60.1,58.4,29.70,SE,143,3.0,4.0,94,0.00,,,0.71,Wunderground v.1.15,2013-04-18 20:17:00,
2013-04-18 16:23:00,60.2,58.5,29.70,SE,136,2.0,3.0,94,0.00,,,0.71,Wunderground v.1.15,2013-04-18 20:23:00,
2013-04-18 16:29:00,60.1,58.7,29.69,SSE,155,3.0,5.0,95,0.00,,,0.71,Wunderground v.1.15,2013-04-18 20:29:00,
2013-04-18 16:34:00,60.1,58.7,29.69,SE,130,4.0,14.0,95,0.00,,,0.71,Wunderground v.1.15,2013-04-18 20:34:00,
2013-04-18 16:41:00,60.1,58.7,29.68,SE,130,3.0,14.0,95,0.00,,,0.71,Wunderground v.1.15,2013-04-18 20:41:00,
2013-04-18 16:47:00,60.1,58.7,29.68,SE,144,3.0,14.0,95,0.00,,,0.71,Wunderground v.1.15,2013-04-18 20:47:00,
2013-04-18 16:53:00,60.1,58.7,29.68,ESE,109,2.0,14.0,95,0.00,,,0.71,Wunderground v.1.15,2013-04-18 20:53:00,
2013-04-18 16:59:00,60.1,58.7,29.68,SE,132,2.0,14.0,95,0.00,,,0.71,Wunderground v.1.15,2013-04-18 20:59:00,
2013-04-18 17:05:00,60.2,58.8,29.68,ESE,117,2.0,4.0,95,0.00,,,0.72,Wunderground v.1.15,2013-04-18 21:05:00,
2013-04-18 17:10:00,60.2,58.8,29.68,SE,139,1.0,1.0,95,0.30,,,0.74,Wunderground v.1.15,2013-04-18 21:10:00,
2013-04-18 17:15:00,60.1,58.7,29.70,NW,309,1.0,5.0,95,0.09,,,0.75,Wunderground v.1.15,2013-04-18 21:15:00,
2013-04-18 17:21:00,60.0,58.9,29.71,NW,320,4.0,4.0,96,0.15,,,0.76,Wunderground v.1.15,2013-04-18 21:21:00,
2013-04-18 17:27:00,59.8,58.7,29.69,NE,56,3.0,4.0,96,0.16,,,0.78,Wunderground v.1.15,2013-04-18 21:27:00,
2013-04-18 17:32:00,59.7,58.6,29.70,NW,323,3.0,6.0,96,0.44,,,0.82,Wunderground v.1.15,2013-04-18 21:32:00,
2013-04-18 17:38:00,59.9,58.5,29.69,NNW,327,5.0,12.0,95,0.63,,,0.86,Wunderground v.1.15,2013-04-18 21:38:00,
2013-04-18 17:43:00,59.9,58.5,29.71,SW,221,5.0,6.0,95,0.94,,,0.95,Wunderground v.1.15,2013-04-18 21:43:00,
2013-04-18 17:49:00,59.8,58.4,29.71,North,4,2.0,6.0,95,1.13,,,1.06,Wunderground v.1.15,2013-04-18 21:49:00,
2013-04-18 17:55:00,59.6,58.2,29.73,WSW,252,2.0,6.0,95,0.58,,,1.19,Wunderground v.1.15,2013-04-18 21:55:00,
2013-04-18 18:00:00,59.5,58.4,29.70,West,274,2.0,2.0,96,0.55,,,1.31,Wunderground v.1.15,2013-04-18 22:00:00,
2013-04-18 18:06:00,59.4,58.3,29.71,SW,232,2.0,5.0,96,0.25,,,1.37,Wunderground v.1.15,2013-04-18 22:06:00,
2013-04-18 18:12:00,59.3,58.2,29.72,SSW,210,4.0,4.0,96,0.12,,,1.38,Wunderground v.1.15,2013-04-18 22:12:00,
2013-04-18 18:18:00,59.3,58.2,29.70,SSW,208,4.0,4.0,96,0.18,,,1.40,Wunderground v.1.15,2013-04-18 22:18:00,
2013-04-18 18:23:00,59.2,58.1,29.70,SW,219,2.0,3.0,96,0.25,,,1.42,Wunderground v.1.15,2013-04-18 22:23:00,
2013-04-18 18:29:00,59.2,58.1,29.71,South,170,2.0,3.0,96,0.07,,,1.42,Wunderground v.1.15,2013-04-18 22:29:00,
2013-04-18 18:35:00,59.2,58.1,29.72,SSW,198,3.0,6.0,96,0.04,,,1.42,Wunderground v.1.15,2013-04-18 22:35:00,
2013-04-18 18:41:00,59.2,58.1,29.71,WSW,240,2.0,6.0,96,0.20,,,1.44,Wunderground v.1.15,2013-04-18 22:41:00,
2013-04-18 18:47:00,59.1,58.0,29.70,SW,235,1.0,6.0,96,0.20,,,1.46,Wunderground v.1.15,2013-04-18 22:47:00,
2013-04-18 18:53:00,59.1,58.0,29.69,SSE,150,1.0,6.0,96,0.19,,,1.48,Wunderground v.1.15,2013-04-18 22:53:00,
2013-04-18 18:59:00,59.0,57.9,29.68,SSE,151,0.0,6.0,96,0.22,,,1.50,Wunderground v.1.15,2013-04-18 22:59:00,
2013-04-18 19:05:00,59.0,57.9,29.69,SE,131,1.0,3.0,96,0.14,,,1.51,Wunderground v.1.15,2013-04-18 23:05:00,
2013-04-18 19:11:00,58.9,57.8,29.69,SE,132,2.0,2.0,96,0.09,,,1.52,Wunderground v.1.15,2013-04-18 23:11:00,
2013-04-18 19:17:00,58.8,57.7,29.68,ESE,107,1.0,2.0,96,0.09,,,1.53,Wunderground v.1.15,2013-04-18 23:17:00,
2013-04-18 19:23:00,58.8,58.0,29.68,ESE,105,1.0,4.0,97,0.17,,,1.55,Wunderground v.1.15,2013-04-18 23:23:00,
2013-04-18 19:29:00,58.8,58.0,29.68,ESE,104,3.0,4.0,97,0.14,,,1.57,Wunderground v.1.15,2013-04-18 23:29:00,
2013-04-18 19:35:00,58.7,57.9,29.67,ENE,60,3.0,9.0,97,0.17,,,1.58,Wunderground v.1.15,2013-04-18 23:35:00,
2013-04-18 19:41:00,58.7,57.9,29.67,SE,132,4.0,9.0,97,0.22,,,1.60,Wunderground v.1.15,2013-04-18 23:41:00,
2013-04-18 19:47:00,58.7,57.9,29.67,ESE,120,4.0,9.0,97,0.26,,,1.63,Wunderground v.1.15,2013-04-18 23:47:00,
2013-04-18 19:52:00,58.7,57.9,29.66,ESE,122,4.0,9.0,97,0.26,,,1.65,Wunderground v.1.15,2013-04-18 23:52:00,
2013-04-18 19:58:00,58.7,57.9,29.67,SE,143,6.0,9.0,97,0.18,,,1.67,Wunderground v.1.15,2013-04-18 23:58:00,
2013-04-18 20:04:00,58.8,58.0,29.67,SE,145,7.0,7.0,97,0.24,,,1.69,Wunderground v.1.15,2013-04-19 00:04:00,
2013-04-18 20:10:00,58.8,58.2,29.67,ESE,120,5.0,10.0,98,0.27,,,1.71,Wunderground v.1.15,2013-04-19 00:10:00,
2013-04-18 20:16:00,58.8,58.2,29.65,ENE,76,5.0,10.0,98,0.40,,,1.74,Wunderground v.1.15,2013-04-19 00:16:00,
2013-04-18 20:21:00,58.8,58.2,29.64,ESE,102,5.0,6.0,98,0.29,,,1.77,Wunderground v.1.15,2013-04-19 00:21:00,
2013-04-18 20:27:00,58.9,58.3,29.64,SE,132,5.0,10.0,98,0.24,,,1.79,Wunderground v.1.15,2013-04-19 00:27:00,
2013-04-18 20:33:00,58.9,58.3,29.64,SE,132,6.0,8.0,98,0.23,,,1.81,Wunderground v.1.15,2013-04-19 00:33:00,
2013-04-18 20:39:00,59.0,58.4,29.64,ESE,107,7.0,14.0,98,0.21,,,1.83,Wunderground v.1.15,2013-04-19 00:39:00,
2013-04-18 20:44:00,59.1,58.5,29.64,SE,127,7.0,11.0,98,0.19,,,1.85,Wunderground v.1.15,2013-04-19 00:44:00,
2013-04-18 20:50:00,59.2,58.6,29.65,SE,143,8.0,11.0,98,0.23,,,1.87,Wunderground v.1.15,2013-04-19 00:50:00,
2013-04-18 20:56:00,59.2,58.6,29.65,SE,124,8.0,11.0,98,0.26,,,1.89,Wunderground v.1.15,2013-04-19 00:56:00,
2013-04-18 21:02:00,59.2,58.6,29.64,SE,134,7.0,10.0,98,0.32,,,1.92,Wunderground v.1.15,2013-04-19 01:02:00,
2013-04-18 21:08:00,59.2,58.6,29.63,SE,127,7.0,10.0,98,0.24,,,1.95,Wunderground v.1.15,2013-04-19 01:08:00,
2013-04-18 21:14:00,59.2,58.3,29.62,ENE,70,7.0,8.0,97,0.21,,,1.98,Wunderground v.1.15,2013-04-19 01:14:00,
2013-04-18 21:20:00,59.2,58.3,29.64,SE,127,6.0,14.0,97,0.07,,,1.98,Wunderground v.1.15,2013-04-19 01:20:00,
2013-04-18 21:26:00,59.2,58.3,29.63,ESE,114,6.0,14.0,97,0.62,,,2.04,Wunderground v.1.15,2013-04-19 01:26:00,
2013-04-18 21:31:00,59.2,58.3,29.64,South,169,5.0,13.0,97,0.43,,,2.09,Wunderground v.1.15,2013-04-19 01:31:00,
2013-04-18 21:37:00,59.1,58.2,29.63,SSE,155,6.0,13.0,97,0.37,,,2.14,Wunderground v.1.15,2013-04-19 01:37:00,
2013-04-18 21:43:00,59.1,58.2,29.63,SSE,148,4.0,13.0,97,0.25,,,2.18,Wunderground v.1.15,2013-04-19 01:43:00,
2013-04-18 21:49:00,59.0,58.2,29.64,ESE,108,5.0,13.0,97,0.84,,,2.22,Wunderground v.1.15,2013-04-19 01:49:00,
2013-04-18 21:55:00,59.0,58.4,29.62,SE,136,6.0,13.0,98,0.20,,,2.25,Wunderground v.1.15,2013-04-19 01:55:00,
2013-04-18 22:00:00,59.1,58.5,29.62,SE,143,6.0,11.0,98,0.20,,,2.27,Wunderground v.1.15,2013-04-19 02:00:00,
2013-04-18 22:06:00,59.1,58.5,29.63,SE,132,8.0,14.0,98,0.09,,,2.27,Wunderground v.1.15,2013-04-19 02:06:00,
2013-04-18 22:12:00,59.1,58.2,29.61,SE,136,8.0,9.0,97,0.60,,,2.35,Wunderground v.1.15,2013-04-19 02:12:00,
2013-04-18 22:17:00,59.0,58.2,29.61,ESE,117,6.0,10.0,97,0.26,,,2.38,Wunderground v.1.15,2013-04-19 02:17:00,
2013-04-18 22:23:00,59.1,58.2,29.61,SE,129,6.0,11.0,97,0.16,,,2.40,Wunderground v.1.15,2013-04-19 02:23:00,
2013-04-18 22:29:00,59.0,58.2,29.61,SSE,148,8.0,11.0,97,0.57,,,2.43,Wunderground v.1.15,2013-04-19 02:29:00,
2013-04-18 22:35:00,59.0,58.4,29.60,ESE,120,9.0,15.0,98,0.88,,,2.47,Wunderground v.1.15,2013-04-19 02:35:00,
2013-04-18 22:41:00,59.1,58.5,29.60,ESE,117,9.0,15.0,98,0.31,,,2.51,Wunderground v.1.15,2013-04-19 02:41:00,
2013-04-18 22:47:00,59.2,58.6,29.59,SE,134,9.0,15.0,98,0.58,,,2.57,Wunderground v.1.15,2013-04-19 02:47:00,
2013-04-18 22:53:00,59.3,58.7,29.59,SSE,158,8.0,15.0,98,0.44,,,2.61,Wunderground v.1.15,2013-04-19 02:53:00,
2013-04-18 22:58:00,59.4,58.8,29.59,SSE,155,7.0,15.0,98,0.29,,,2.64,Wunderground v.1.15,2013-04-19 02:58:00,
2013-04-18 23:04:00,59.6,59.0,29.58,SSE,150,7.0,11.0,98,0.20,,,2.66,Wunderground v.1.15,2013-04-19 03:04:00,
2013-04-18 23:09:00,59.7,59.1,29.58,South,184,8.0,11.0,98,0.22,,,2.68,Wunderground v.1.15,2013-04-19 03:09:00,
2013-04-18 23:15:00,59.9,59.3,29.57,SE,136,7.0,8.0,98,0.17,,,2.70,Wunderground v.1.15,2013-04-19 03:15:00,
2013-04-18 23:21:00,60.0,59.4,29.57,SSE,156,7.0,13.0,98,0.24,,,2.73,Wunderground v.1.15,2013-04-19 03:21:00,
2013-04-18 23:27:00,60.1,59.2,29.57,SSE,152,8.0,13.0,97,0.44,,,2.76,Wunderground v.1.15,2013-04-19 03:27:00,
2013-04-18 23:33:00,60.1,59.2,29.56,SE,146,8.0,16.0,97,0.42,,,2.80,Wunderground v.1.15,2013-04-19 03:33:00,
2013-04-18 23:38:00,60.1,59.2,29.56,SSW,200,8.0,16.0,97,0.40,,,2.82,Wunderground v.1.15,2013-04-19 03:38:00,
2013-04-18 23:44:00,60.1,59.2,29.56,SSE,155,8.0,16.0,97,0.21,,,2.86,Wunderground v.1.15,2013-04-19 03:44:00,
2013-04-18 23:50:00,60.1,59.2,29.56,SSE,148,9.0,9.0,97,0.17,,,2.88,Wunderground v.1.15,2013-04-19 03:50:00,
2013-04-18 23:56:00,60.0,59.1,29.56,SSE,155,8.0,16.0,97,0.32,,,2.90,Wunderground v.1.15,2013-04-19 03:56:00,